createdAt,value
2018-06-22T00:01:50.323Z,41.00
2018-06-22T00:04:19.322Z,42.80
2018-06-22T00:06:48.572Z,41.50
2018-06-22T00:09:17.676Z,42.80
2018-06-22T00:11:46.880Z,42.10
2018-06-22T00:14:15.874Z,43.70
2018-06-22T00:16:45.127Z,43.00
2018-06-22T00:19:14.130Z,43.40
2018-06-22T00:21:43.152Z,41.90
2018-06-22T00:24:12.428Z,41.30
2018-06-22T00:26:41.881Z,41.00
2018-06-22T00:29:10.885Z,40.60
2018-06-22T00:31:40.157Z,40.70
2018-06-22T00:34:10.756Z,40.70
2018-06-22T00:36:39.789Z,40.70
2018-06-22T00:39:10.001Z,40.50
2018-06-22T00:41:39.321Z,40.50
2018-06-22T00:44:08.313Z,40.50
2018-06-22T00:46:37.760Z,40.60
2018-06-22T00:49:06.817Z,40.20
2018-06-22T00:51:36.085Z,40.30
2018-06-22T00:54:14.063Z,40.70
2018-06-22T00:56:56.839Z,41.00
2018-06-22T00:59:26.137Z,41.00
2018-06-22T01:01:56.074Z,40.90
2018-06-22T01:04:25.354Z,41.20
2018-06-22T01:06:55.182Z,41.00
2018-06-22T01:09:24.430Z,41.00
2018-06-22T01:11:53.686Z,41.00
2018-06-22T01:14:22.937Z,41.30
2018-06-22T01:16:52.186Z,41.20
2018-06-22T01:19:21.224Z,41.30
2018-06-22T01:21:50.470Z,41.30
2018-06-22T01:24:19.981Z,41.20
2018-06-22T01:26:49.018Z,41.50
2018-06-22T01:29:23.323Z,41.30
2018-06-22T01:31:52.368Z,41.80
2018-06-22T01:34:22.067Z,41.60
2018-06-22T01:36:51.296Z,41.90
2018-06-22T01:39:20.576Z,42.10
2018-06-22T01:41:49.596Z,42.10
2018-06-22T01:44:18.640Z,42.10
2018-06-22T01:46:47.760Z,42.20
2018-06-22T01:49:16.788Z,42.10
2018-06-22T01:51:46.041Z,42.20
2018-06-22T01:54:15.105Z,42.20
2018-06-22T01:56:44.156Z,42.40
2018-06-22T01:59:13.429Z,42.70
2018-06-22T02:01:42.471Z,42.50
2018-06-22T02:04:12.307Z,42.80
2018-06-22T02:06:41.614Z,43.00
2018-06-22T02:09:12.022Z,43.00
2018-06-22T02:11:41.106Z,43.00
2018-06-22T02:14:10.124Z,43.10
2018-06-22T02:16:39.407Z,43.10
2018-06-22T02:19:08.521Z,43.10
2018-06-22T02:21:37.544Z,43.10
2018-06-22T02:24:06.653Z,43.30
2018-06-22T02:26:35.705Z,43.30
2018-06-22T02:29:05.171Z,43.10
2018-06-22T02:31:34.198Z,43.00
2018-06-22T02:34:03.722Z,43.00
2018-06-22T02:36:32.910Z,43.10
2018-06-22T02:39:02.196Z,43.10
2018-06-22T02:41:31.253Z,43.30
2018-06-22T02:44:00.524Z,43.40
2018-06-22T02:46:29.548Z,43.10
2018-06-22T02:48:58.832Z,43.00
2018-06-22T02:51:28.077Z,42.80
2018-06-22T02:53:57.312Z,43.10
2018-06-22T02:56:26.422Z,43.00
2018-06-22T02:58:55.446Z,42.80
2018-06-22T03:01:24.465Z,42.70
2018-06-22T03:03:53.510Z,42.40
2018-06-22T03:06:22.553Z,42.20
2018-06-22T03:08:55.348Z,42.10
2018-06-22T03:11:24.380Z,42.20
2018-06-22T03:13:53.418Z,42.20
2018-06-22T03:16:22.472Z,42.50
2018-06-22T03:18:51.728Z,42.40
2018-06-22T03:21:21.125Z,42.40
2018-06-22T03:23:50.193Z,42.20
2018-06-22T03:26:19.479Z,42.10
2018-06-22T03:28:48.741Z,42.40
2018-06-22T03:31:17.781Z,42.50
2018-06-22T03:33:47.027Z,42.50
2018-06-22T03:36:16.065Z,42.50
2018-06-22T03:38:45.122Z,42.40
2018-06-22T03:41:14.442Z,42.40
2018-06-22T03:43:43.472Z,42.40
2018-06-22T03:46:12.573Z,42.20
2018-06-22T03:48:41.660Z,42.10
2018-06-22T03:51:10.679Z,42.10
2018-06-22T03:53:39.783Z,42.20
2018-06-22T03:56:08.804Z,42.10
2018-06-22T03:58:38.309Z,41.90
2018-06-22T04:01:07.846Z,41.60
2018-06-22T04:03:37.114Z,41.80
2018-06-22T04:06:06.493Z,41.80
2018-06-22T04:08:35.529Z,41.90
2018-06-22T04:11:04.586Z,41.90
2018-06-22T04:13:33.631Z,41.60
2018-06-22T04:16:02.685Z,41.60
2018-06-22T04:18:31.705Z,41.50
2018-06-22T04:21:00.839Z,41.60
2018-06-22T04:23:30.185Z,41.80
2018-06-22T04:25:59.248Z,41.50
2018-06-22T04:28:28.282Z,41.50
2018-06-22T04:30:57.330Z,41.50
2018-06-22T04:33:26.349Z,41.50
2018-06-22T04:35:55.892Z,41.50
2018-06-22T04:38:25.017Z,41.20
2018-06-22T04:40:54.047Z,41.30
2018-06-22T04:43:23.074Z,41.30
2018-06-22T04:45:52.357Z,41.20
2018-06-22T04:48:21.384Z,41.00
2018-06-22T04:50:50.626Z,40.90
2018-06-22T04:53:19.917Z,40.70
2018-06-22T04:55:48.939Z,40.90
2018-06-22T04:58:18.176Z,40.90
2018-06-22T05:00:47.449Z,40.90
2018-06-22T05:03:16.692Z,40.70
2018-06-22T05:05:46.161Z,40.70
2018-06-22T05:08:16.165Z,40.30
2018-06-22T05:10:45.217Z,39.90
2018-06-22T05:13:14.484Z,39.60
2018-06-22T05:15:43.771Z,39.60
2018-06-22T05:18:13.064Z,39.40
2018-06-22T05:20:42.628Z,39.60
2018-06-22T05:23:12.325Z,39.10
2018-06-22T05:25:41.796Z,39.00
2018-06-22T05:28:10.812Z,39.10
2018-06-22T05:30:40.153Z,39.10
2018-06-22T05:33:09.442Z,38.80
2018-06-22T05:35:39.363Z,38.80
2018-06-22T05:38:08.625Z,38.70
2018-06-22T05:40:37.702Z,38.50
2018-06-22T05:43:06.771Z,38.10
2018-06-22T05:45:36.036Z,37.80
2018-06-22T05:48:05.150Z,37.50
2018-06-22T05:50:34.601Z,37.50
2018-06-22T05:53:03.930Z,37.40
2018-06-22T05:55:33.181Z,37.40
2018-06-22T05:58:02.250Z,37.20
2018-06-22T06:00:31.502Z,37.20
2018-06-22T06:03:00.556Z,36.90
2018-06-22T06:05:29.617Z,36.50
2018-06-22T06:07:58.865Z,36.00
2018-06-22T06:10:27.888Z,36.00
2018-06-22T06:12:56.993Z,36.20
2018-06-22T06:15:26.469Z,35.90
2018-06-22T06:17:55.509Z,35.90
2018-06-22T06:20:24.586Z,35.90
2018-06-22T06:22:53.842Z,35.70
2018-06-22T06:25:22.946Z,35.40
2018-06-22T06:27:52.007Z,35.30
2018-06-22T06:30:21.269Z,35.10
2018-06-22T06:32:50.534Z,34.80
2018-06-22T06:35:20.065Z,35.00
2018-06-22T06:37:49.301Z,36.00
2018-06-22T06:40:18.381Z,41.80
2018-06-22T06:42:47.450Z,40.20
2018-06-22T06:45:16.516Z,40.20
2018-06-22T06:47:45.794Z,37.90
2018-06-22T06:50:14.844Z,36.60
2018-06-22T06:52:44.168Z,35.40
2018-06-22T06:55:13.237Z,34.40
2018-06-22T06:57:42.560Z,33.80
2018-06-22T07:00:11.597Z,33.20
2018-06-22T07:02:40.618Z,33.10
2018-06-22T07:05:09.696Z,32.80
2018-06-22T07:07:38.730Z,32.60
2018-06-22T07:10:07.817Z,32.20
2018-06-22T07:12:36.889Z,31.70
2018-06-22T07:15:06.193Z,32.00
2018-06-22T07:17:35.305Z,31.90
2018-06-22T07:20:04.518Z,31.70
2018-06-22T07:22:33.893Z,31.90
2018-06-22T07:25:02.957Z,32.20
2018-06-22T07:27:32.874Z,32.50
2018-06-22T07:30:01.928Z,32.60
2018-06-22T07:32:31.205Z,32.60
2018-06-22T07:35:00.279Z,32.50
2018-06-22T07:37:29.530Z,32.30
2018-06-22T07:39:58.569Z,32.00
2018-06-22T07:42:27.639Z,31.90
2018-06-22T07:44:56.709Z,31.70
2018-06-22T07:47:25.740Z,31.40
2018-06-22T07:49:54.870Z,31.60
2018-06-22T07:52:23.856Z,31.40
2018-06-22T07:54:52.908Z,31.40
2018-06-22T07:57:22.011Z,32.00
2018-06-22T07:59:51.029Z,32.80
2018-06-22T08:02:20.058Z,33.20
2018-06-22T08:04:49.726Z,33.70
2018-06-22T08:07:18.780Z,33.80
2018-06-22T08:09:47.995Z,34.00
2018-06-22T08:12:17.093Z,34.40
2018-06-22T08:14:46.754Z,34.70
2018-06-22T08:17:16.288Z,34.80
2018-06-22T08:19:45.550Z,34.80
2018-06-22T08:22:14.580Z,34.50
2018-06-22T08:24:43.721Z,34.50
2018-06-22T08:27:12.750Z,34.70
2018-06-22T08:29:41.999Z,34.70
2018-06-22T08:32:11.288Z,34.50
2018-06-22T08:34:40.528Z,34.50
2018-06-22T08:37:09.557Z,34.40
2018-06-22T08:39:38.876Z,34.20
2018-06-22T08:42:08.151Z,34.20
2018-06-22T08:44:37.411Z,34.00
2018-06-22T08:47:06.489Z,33.70
2018-06-22T08:49:35.753Z,33.40
2018-06-22T08:52:04.794Z,32.90
2018-06-22T08:54:34.225Z,32.60
2018-06-22T08:57:03.253Z,32.60
2018-06-22T08:59:32.338Z,33.70
2018-06-22T09:02:01.468Z,34.00
2018-06-22T09:04:30.512Z,34.10
2018-06-22T09:06:59.547Z,34.20
2018-06-22T09:09:28.682Z,34.00
2018-06-22T09:11:57.727Z,33.10
2018-06-22T09:14:26.861Z,32.60
2018-06-22T09:16:55.934Z,32.00
2018-06-22T09:19:25.018Z,30.80
2018-06-22T09:21:54.330Z,29.10
2018-06-22T09:24:23.615Z,27.30
2018-06-22T09:26:52.668Z,25.60
2018-06-22T09:29:21.789Z,24.80
2018-06-22T09:31:50.850Z,24.50
2018-06-22T09:34:19.914Z,24.50
2018-06-22T09:36:48.999Z,24.70
2018-06-22T09:39:18.173Z,25.10
2018-06-22T09:41:47.434Z,25.90
2018-06-22T09:44:28.356Z,26.40
2018-06-22T09:46:57.641Z,26.80
2018-06-22T09:49:27.157Z,27.10
2018-06-22T09:51:57.611Z,27.30
2018-06-22T09:54:27.458Z,27.10
2018-06-22T09:56:56.888Z,26.50
2018-06-22T09:59:25.950Z,26.30
2018-06-22T10:01:55.636Z,25.60
2018-06-22T10:04:25.117Z,25.30
2018-06-22T10:06:54.226Z,24.30
2018-06-22T10:09:23.252Z,23.30
2018-06-22T10:11:52.509Z,22.10
2018-06-22T10:14:21.802Z,21.60
2018-06-22T10:16:51.070Z,21.60
2018-06-22T10:19:20.160Z,22.50
2018-06-22T10:21:49.259Z,23.30
2018-06-22T10:24:18.405Z,23.90
2018-06-22T10:26:47.444Z,24.40
2018-06-22T10:29:16.631Z,25.00
2018-06-22T10:31:45.934Z,25.30
2018-06-22T10:34:14.982Z,25.90
2018-06-22T10:36:44.229Z,26.40
2018-06-22T10:39:13.731Z,27.00
2018-06-22T10:41:42.834Z,27.40
2018-06-22T10:44:11.944Z,27.80
2018-06-22T10:46:41.412Z,28.10
2018-06-22T10:49:10.524Z,28.00
2018-06-22T10:51:39.873Z,28.20
2018-06-22T10:54:09.087Z,28.30
2018-06-22T10:56:38.165Z,28.50
2018-06-22T10:59:07.507Z,28.40
2018-06-22T11:01:36.593Z,27.60
2018-06-22T11:04:05.845Z,26.50
2018-06-22T11:06:34.894Z,25.70
2018-06-22T11:09:06.132Z,25.40
2018-06-22T11:11:35.202Z,24.90
2018-06-22T11:14:04.400Z,24.30
2018-06-22T11:16:33.573Z,23.50
2018-06-22T11:19:03.461Z,23.10
2018-06-22T11:21:32.854Z,23.00
2018-06-22T11:24:02.465Z,23.20
2018-06-22T11:26:31.911Z,23.40
2018-06-22T11:29:01.251Z,23.70
2018-06-22T11:31:30.753Z,24.20
2018-06-22T11:34:00.021Z,24.30
2018-06-22T11:36:29.127Z,24.50
2018-06-22T11:38:58.714Z,24.60
2018-06-22T11:41:27.883Z,24.70
2018-06-22T11:43:57.178Z,24.80
2018-06-22T11:46:26.414Z,24.90
2018-06-22T11:48:55.438Z,25.10
2018-06-22T11:51:24.684Z,25.00
2018-06-22T11:53:54.210Z,24.90
2018-06-22T11:56:23.474Z,24.70
2018-06-22T11:58:52.814Z,24.90
2018-06-22T12:01:21.967Z,25.00
2018-06-22T12:03:52.172Z,24.90
2018-06-22T12:06:21.450Z,25.00
2018-06-22T12:08:50.541Z,25.10
2018-06-22T12:11:19.629Z,24.90
2018-06-22T12:13:48.730Z,24.20
2018-06-22T12:16:17.985Z,23.70
2018-06-22T12:18:47.421Z,24.00
2018-06-22T12:21:16.466Z,24.00
2018-06-22T12:23:45.729Z,23.80
2018-06-22T12:26:15.692Z,24.10
2018-06-22T12:28:44.889Z,24.20
2018-06-22T12:31:13.913Z,23.70
2018-06-22T12:33:43.185Z,23.40
2018-06-22T12:36:12.286Z,23.50
2018-06-22T12:38:41.328Z,23.20
2018-06-22T12:41:11.652Z,22.90
2018-06-22T12:43:40.762Z,22.40
2018-06-22T12:46:09.933Z,22.10
2018-06-22T12:48:38.959Z,21.60
2018-06-22T12:51:08.153Z,21.30
2018-06-22T12:53:39.332Z,21.20
2018-06-22T12:56:08.517Z,21.00
2018-06-22T12:58:37.771Z,20.80
2018-06-22T13:01:06.806Z,20.80
2018-06-22T13:03:35.869Z,20.70
2018-06-22T13:06:05.121Z,20.10
2018-06-22T13:08:34.207Z,19.80
2018-06-22T13:11:03.345Z,19.30
2018-06-22T13:13:32.426Z,18.60
2018-06-22T13:16:01.517Z,18.90
2018-06-22T13:18:31.408Z,18.80
2018-06-22T13:21:02.022Z,19.00
2018-06-22T13:23:31.176Z,18.70
2018-06-22T13:26:00.251Z,18.80
2018-06-22T13:28:29.359Z,18.00
2018-06-22T13:30:58.449Z,17.90
2018-06-22T13:33:27.489Z,18.10
2018-06-22T13:35:56.549Z,18.50
2018-06-22T13:38:26.011Z,19.00
2018-06-22T13:40:55.072Z,19.70
2018-06-22T13:43:24.142Z,19.20
2018-06-22T13:45:53.473Z,20.60
2018-06-22T13:48:22.552Z,21.40
2018-06-22T13:50:52.013Z,21.30
2018-06-22T13:53:21.437Z,20.80
2018-06-22T13:55:50.797Z,20.00
2018-06-22T13:58:19.837Z,19.70
2018-06-22T14:00:48.981Z,19.80
2018-06-22T14:03:19.545Z,19.80
2018-06-22T14:05:53.922Z,20.80
2018-06-22T14:08:23.034Z,21.40
2018-06-22T14:10:52.305Z,21.60
2018-06-22T14:13:22.084Z,21.30
2018-06-22T14:15:51.215Z,21.50
2018-06-22T14:18:20.306Z,22.40
2018-06-22T14:20:49.410Z,21.60
2018-06-22T14:23:18.752Z,22.20
2018-06-22T14:25:47.838Z,22.80
2018-06-22T14:28:16.925Z,23.30
2018-06-22T14:30:46.029Z,23.70
2018-06-22T14:33:15.345Z,24.20
2018-06-22T14:35:44.473Z,23.80
2018-06-22T14:38:14.157Z,23.90
2018-06-22T14:40:43.208Z,24.10
2018-06-22T14:43:12.316Z,25.00
2018-06-22T14:45:41.579Z,24.90
2018-06-22T14:48:10.827Z,24.90
2018-06-22T14:50:40.343Z,24.60
2018-06-22T14:53:14.901Z,24.20
2018-06-22T14:55:49.245Z,24.40
2018-06-22T14:58:23.663Z,24.60
2018-06-22T15:03:01.072Z,24.40
2018-06-22T15:05:35.394Z,24.30
2018-06-22T15:08:05.978Z,23.20
2018-06-22T15:10:35.122Z,23.20
2018-06-22T15:13:04.252Z,23.70
2018-06-22T15:15:33.342Z,23.00
2018-06-22T15:18:02.379Z,22.70
2018-06-22T15:20:31.512Z,22.70
2018-06-22T15:23:00.659Z,23.30
2018-06-22T15:25:30.257Z,23.20
2018-06-22T15:28:00.189Z,23.80
2018-06-22T15:30:29.281Z,24.30
2018-06-22T15:32:58.311Z,23.90
2018-06-22T15:35:32.634Z,24.00
2018-06-22T15:38:07.212Z,24.60
2018-06-22T15:40:42.391Z,24.50
2018-06-22T15:45:21.774Z,24.00
2018-06-22T15:47:56.145Z,23.70
2018-06-22T15:50:30.736Z,24.80
2018-06-22T15:53:05.396Z,26.60
2018-06-22T15:55:39.174Z,26.00
2018-06-22T15:58:08.362Z,25.10
2018-06-22T16:00:37.422Z,24.70
2018-06-22T16:04:12.604Z,24.30
2018-06-22T16:06:41.738Z,24.10
2018-06-22T16:09:11.852Z,24.00
2018-06-22T16:11:40.939Z,23.90
2018-06-22T16:14:15.358Z,23.60
2018-06-22T16:16:51.348Z,23.70
2018-06-22T16:19:26.276Z,24.20
2018-06-22T16:22:00.589Z,23.20
2018-06-22T16:24:34.947Z,24.30
2018-06-22T16:27:09.315Z,24.40
2018-06-22T16:29:38.671Z,24.40
2018-06-22T16:32:07.955Z,24.30
2018-06-22T16:34:37.092Z,24.50
2018-06-22T16:37:06.187Z,24.50
2018-06-22T16:39:35.492Z,24.40
2018-06-22T16:42:04.547Z,24.60
2018-06-22T16:44:33.664Z,24.30
2018-06-22T16:47:02.758Z,24.30
2018-06-22T16:49:32.082Z,24.50
2018-06-22T16:52:01.209Z,24.40
2018-06-22T16:54:30.251Z,24.20
2018-06-22T16:56:59.292Z,24.00
2018-06-22T16:59:28.649Z,24.50
2018-06-22T17:01:57.749Z,24.40
2018-06-22T17:04:26.844Z,24.60
2018-06-22T17:09:02.109Z,24.30
2018-06-22T17:11:36.446Z,25.30
2018-06-22T17:14:10.986Z,24.40
2018-06-22T17:16:45.768Z,24.80
2018-06-22T17:19:20.902Z,25.10
2018-06-22T17:21:50.368Z,25.10
2018-06-22T17:24:19.457Z,25.40
2018-06-22T17:26:48.666Z,25.60
2018-06-22T17:29:17.803Z,25.50
2018-06-22T17:31:46.905Z,25.50
2018-06-22T17:34:16.108Z,25.60
2018-06-22T17:36:45.607Z,25.90
2018-06-22T17:39:14.956Z,26.60
2018-06-22T17:41:44.325Z,26.80
2018-06-22T17:44:13.477Z,26.80
2018-06-22T17:46:42.841Z,27.30
2018-06-22T17:49:12.190Z,27.30
2018-06-22T17:51:41.312Z,27.70
2018-06-22T17:54:10.677Z,27.10
2018-06-22T17:56:39.866Z,26.60
2018-06-22T17:59:14.551Z,27.40
2018-06-22T18:01:49.961Z,27.40
2018-06-22T18:04:24.628Z,27.70
2018-06-22T18:06:59.096Z,27.90
2018-06-22T18:11:36.406Z,28.60
2018-06-22T18:14:05.613Z,29.40
2018-06-22T18:16:34.747Z,28.50
2018-06-22T18:19:03.845Z,28.40
2018-06-22T18:21:33.006Z,28.90
2018-06-22T18:24:02.357Z,28.40
2018-06-22T18:26:31.580Z,28.50
2018-06-22T18:29:03.758Z,28.80
2018-06-22T18:31:34.391Z,28.80
2018-06-22T18:34:04.204Z,28.40
2018-06-22T18:36:33.364Z,29.40
2018-06-22T18:39:02.737Z,28.80
2018-06-22T18:41:31.958Z,30.10
2018-06-22T18:44:01.317Z,29.80
2018-06-22T18:46:31.014Z,30.60
2018-06-22T18:49:01.601Z,29.70
2018-06-22T18:51:30.774Z,28.60
2018-06-22T18:54:05.402Z,28.90
2018-06-22T18:56:40.439Z,28.70
2018-06-22T18:59:14.913Z,28.70
2018-06-22T19:01:49.259Z,29.00
2018-06-22T19:04:18.393Z,29.80
2018-06-22T19:06:47.480Z,29.90
2018-06-22T19:09:16.799Z,31.90
2018-06-22T19:11:46.037Z,32.80
2018-06-22T19:14:15.821Z,33.20
2018-06-22T19:16:44.886Z,32.20
2018-06-22T19:19:14.255Z,33.40
2018-06-22T19:21:43.470Z,34.20
2018-06-22T19:24:12.537Z,34.50
2018-06-22T19:26:41.649Z,33.80
2018-06-22T19:29:12.127Z,33.40
2018-06-22T19:31:41.709Z,33.40
2018-06-22T19:34:10.878Z,33.80
2018-06-22T19:36:40.127Z,35.10
2018-06-22T19:39:10.328Z,34.40
2018-06-22T19:41:39.769Z,35.30
2018-06-22T19:44:14.341Z,33.50
2018-06-22T19:46:49.020Z,34.50
2018-06-22T19:49:23.609Z,35.60
2018-06-22T19:51:57.983Z,34.10
2018-06-22T19:54:27.106Z,34.50
2018-06-22T19:56:56.287Z,34.20
2018-06-22T19:59:26.422Z,35.90
2018-06-22T20:01:55.849Z,34.20
2018-06-22T20:04:24.943Z,34.50
2018-06-22T20:06:54.157Z,33.50
2018-06-22T20:09:23.276Z,35.90
2018-06-22T20:11:52.557Z,35.30
2018-06-22T20:14:23.382Z,34.40
2018-06-22T20:16:52.445Z,35.40
2018-06-22T20:19:21.704Z,34.70
2018-06-22T20:21:50.801Z,35.30
2018-06-22T20:24:25.232Z,34.80
2018-06-22T20:26:54.345Z,34.40
2018-06-22T20:29:23.514Z,35.30
2018-06-22T20:31:52.596Z,35.00
2018-06-22T20:34:27.792Z,34.50
2018-06-22T20:37:02.215Z,34.80
2018-06-22T20:39:36.592Z,35.70
2018-06-22T20:42:11.065Z,35.70
2018-06-22T20:44:45.767Z,35.90
2018-06-22T20:47:20.096Z,36.00
2018-06-22T20:49:54.568Z,36.50
2018-06-22T20:52:23.988Z,37.50
2018-06-22T20:54:53.065Z,37.60
2018-06-22T20:57:22.576Z,38.10
2018-06-22T20:59:52.029Z,38.10
2018-06-22T21:02:21.328Z,37.90
2018-06-22T21:04:50.392Z,37.90
2018-06-22T21:07:19.564Z,38.40
2018-06-22T21:09:48.686Z,38.10
2018-06-22T21:12:26.252Z,38.70
2018-06-22T21:14:47.074Z,38.50
2018-06-22T21:17:16.196Z,38.80
2018-06-22T21:19:46.052Z,39.30
2018-06-22T21:22:15.241Z,39.60
2018-06-22T21:24:44.520Z,40.20
2018-06-22T21:27:18.998Z,40.30
2018-06-22T21:29:53.324Z,40.20
2018-06-22T21:32:27.676Z,40.00
2018-06-22T21:35:02.395Z,41.20
2018-06-22T21:37:36.721Z,41.90
2018-06-22T21:40:05.922Z,41.90
2018-06-22T21:42:36.697Z,41.30
2018-06-22T21:45:06.965Z,41.20
2018-06-22T21:47:36.198Z,41.30
2018-06-22T21:50:05.379Z,41.20
2018-06-22T21:52:34.673Z,41.00
2018-06-22T21:55:03.805Z,40.90
2018-06-22T21:57:32.917Z,40.90
2018-06-22T22:00:01.987Z,41.30
2018-06-22T22:02:32.661Z,41.50
2018-06-22T22:05:01.917Z,41.30
2018-06-22T22:07:31.165Z,41.80
2018-06-22T22:10:00.677Z,42.20
2018-06-22T22:12:29.969Z,42.40
2018-06-22T22:14:58.997Z,41.90
2018-06-22T22:17:28.314Z,42.10
2018-06-22T22:19:57.363Z,42.10
2018-06-22T22:22:26.448Z,42.40
2018-06-22T22:24:55.528Z,41.80
2018-06-22T22:27:24.580Z,41.50
2018-06-22T22:29:53.713Z,41.50
2018-06-22T22:32:23.157Z,41.90
2018-06-22T22:34:52.269Z,46.10
2018-06-22T22:37:21.380Z,46.80
2018-06-22T22:39:50.518Z,46.80
2018-06-22T22:42:19.837Z,45.20
2018-06-22T22:44:49.437Z,45.80
2018-06-22T22:47:18.498Z,44.10
2018-06-22T22:49:47.558Z,44.00
2018-06-22T22:52:16.612Z,43.40
2018-06-22T22:54:45.764Z,44.60
2018-06-22T22:57:15.298Z,44.60
2018-06-22T22:59:44.571Z,43.60
2018-06-22T23:02:13.633Z,44.60
2018-06-22T23:04:42.709Z,44.30
2018-06-22T23:07:11.749Z,44.60
2018-06-22T23:09:40.816Z,45.80
2018-06-22T23:12:09.883Z,44.90
2018-06-22T23:14:39.199Z,44.40
2018-06-22T23:17:08.235Z,44.00
2018-06-22T23:19:37.799Z,44.00
2018-06-22T23:22:06.965Z,44.10
2018-06-22T23:24:36.008Z,44.60
2018-06-22T23:27:05.086Z,44.40
2018-06-22T23:29:34.180Z,44.90
2018-06-22T23:32:03.221Z,45.90
2018-06-22T23:34:32.271Z,46.50
2018-06-22T23:37:01.517Z,47.00
2018-06-22T23:39:30.557Z,46.80
2018-06-22T23:41:59.576Z,47.50
2018-06-22T23:44:28.612Z,47.70
2018-06-22T23:46:57.654Z,47.40
2018-06-22T23:49:26.905Z,48.00
2018-06-22T23:51:55.946Z,49.00
2018-06-22T23:54:25.224Z,48.70
2018-06-22T23:56:54.244Z,49.00
2018-06-22T23:59:23.304Z,50.10
